首页
METAR-TAF:

METAR-TAF

机场 :

Wausau, 威斯康辛州, 美国

纬度: 44-55-43N, 经度: 089-37-36W, 海拔: 366米

当前天气观测

该预报发布于18分钟前的22:54 UTC
风速6节,风向东北
温度 24°C
湿度 38%
气压 1018 hPa
能見度: 16.1公里
少量云层高于7000英尺
多云层高于9000英尺

METAR: KAUW 142254Z AUTO 05006KT 10SM FEW070 BKN090 24/09 A3005 RMK AO2 SLP177 T02390094

时间: 18:12 (23:12 UTC)

预报

该预报发布于5小时和41分钟前的17:31 UTC
预报有效从14日的 18点(UTC)到 15日的 18点(UTC)
风速5节,风向
能見度: 10公里
散云层高于5000英尺
短暂存在
从 14日的 18点(UTC)到 14日的 22点(UTC)
多云层高于5000英尺
从 14日的 2200点(UTC)
风速5节,风向东南
能見度: 10公里
散云层高于6000英尺
从 15日的 0200点(UTC)
风速5节,风向东转东南
能見度: 10公里
天空无云
从 15日的 1400点(UTC)
风速8节,风向南转南东
能見度: 10公里
散云层高于10000英尺

TAF: KAUW 141731Z 1418/1518 35005KT P6SM SCT050 TEMPO 1418/1422 BKN050 FM142200 14005KT P6SM SCT060 FM150200 12005KT P6SM SKC FM151400 15008KT P6SM SCT100

超过4000个机场的气象观测和天气预报(METAR&TAF报告)。

可查询的气象台以黄色和红色小点在地图上表示。

将鼠标移到小点上方,可查看气象台名称。

然后点击查看天气观测和预报。

如需切换地图:点击带黑十字的绿色按钮放大地图;点击带横线的绿色按钮缩小地图;或者点击绿色箭头查看邻近地区的地图。


METAR-TAF: